Time;durP1;ratioP1;P1;durP2;ratioP2;P2;SDS_P1;SDS_P2;PMS_P1;PMS_P2;Temp;Humidity;BMP_temperature;BMP_pressure;BME280_temperature;BME280_humidity;BME280_pressure;Samples;Min_cycle;Max_cycle;Signal;HPM_P1;HPM_P2
2022/08/19 00:01:24;;;;;;;13.43;7.15;;;;;;;27.10;51.81;99483.63;6011731;23;97241;-74
2022/08/19 00:03:50;;;;;;;10.25;6.20;;;;;;;27.06;51.57;99481.47;6008648;23;96887;-75
2022/08/19 00:06:16;;;;;;;11.55;7.15;;;;;;;27.06;51.78;99484.16;6034938;23;97394;-76
2022/08/19 00:08:41;;;;;;;16.50;6.20;;;;;;;27.01;51.71;99475.78;5985404;23;100581;-76
2022/08/19 00:11:07;;;;;;;12.07;6.70;;;;;;;27.04;51.54;99467.34;6011138;23;101708;-76
2022/08/19 00:13:33;;;;;;;8.70;6.90;;;;;;;27.00;51.80;99458.78;6010456;23;97106;-76
2022/08/19 00:15:59;;;;;;;11.75;6.88;;;;;;;26.97;51.83;99448.38;6036114;23;96882;-76
2022/08/19 00:18:25;;;;;;;10.52;6.57;;;;;;;26.86;52.05;99436.16;6010989;23;97565;-75
2022/08/19 00:20:51;;;;;;;7.25;6.05;;;;;;;26.91;52.03;99435.63;6010006;23;100944;-76
2022/08/19 00:23:17;;;;;;;11.18;6.40;;;;;;;26.79;52.00;99432.53;6010427;23;96708;-76
2022/08/19 00:25:42;;;;;;;8.57;6.00;;;;;;;26.82;52.05;99434.84;6009791;23;97015;-76
2022/08/19 00:28:08;;;;;;;11.48;6.25;;;;;;;26.83;51.94;99433.84;6060257;23;97796;-76
2022/08/19 00:30:33;;;;;;;11.32;6.88;;;;;;;26.89;51.84;99429.59;5987183;23;100972;-76
2022/08/19 00:32:59;;;;;;;13.00;7.53;;;;;;;26.81;52.22;99430.47;6065020;23;97058;-76
2022/08/19 00:35:27;;;;;;;11.73;7.30;;;;;;;26.70;52.39;99438.13;6014310;23;96968;-75
2022/08/19 00:37:52;;;;;;;10.85;6.45;;;;;;;26.78;52.01;99436.22;6036912;23;101098;-75
2022/08/19 00:40:19;;;;;;;11.60;6.70;;;;;;;26.76;52.33;99432.88;6038343;23;100418;-75
2022/08/19 00:42:45;;;;;;;7.85;6.57;;;;;;;26.71;52.06;99426.34;6063962;23;97124;-76
2022/08/19 00:45:17;;;;;;;11.38;6.45;;;;;;;26.82;51.90;99455.53;6040285;23;97360;-76
2022/08/19 00:47:44;;;;;;;11.90;6.47;;;;;;;26.76;52.26;99454.41;6039038;23;100901;-76
2022/08/19 00:50:11;;;;;;;11.48;7.00;;;;;;;26.65;52.49;99468.28;6039119;23;100884;-76
2022/08/19 00:52:42;;;;;;;9.68;6.90;;;;;;;26.70;52.79;99456.97;6038942;23;97276;-76
2022/08/19 00:55:11;;;;;;;11.43;6.68;;;;;;;26.66;53.08;99442.19;6039801;23;97010;-76
2022/08/19 00:57:40;;;;;;;12.57;6.55;;;;;;;26.68;52.52;99424.84;6039451;23;97413;-76
2022/08/19 01:00:10;;;;;;;8.20;7.30;;;;;;;26.64;53.26;99394.75;6038270;23;100895;-76
2022/08/19 01:02:36;;;;;;;13.65;7.15;;;;;;;26.61;53.93;99413.09;6039207;23;96669;-76
2022/08/19 01:05:06;;;;;;;12.55;6.95;;;;;;;26.56;53.98;99437.88;6039529;23;96899;-76
2022/08/19 01:07:33;;;;;;;8.88;6.72;;;;;;;26.51;54.19;99434.03;6064223;23;97515;-76
2022/08/19 01:09:59;;;;;;;12.20;6.90;;;;;;;26.40;54.79;99430.69;6038789;23;100860;-76
2022/08/19 01:12:24;;;;;;;11.65;7.10;;;;;;;26.34;54.79;99422.47;6039436;23;97288;-75
2022/08/19 01:14:50;;;;;;;9.30;7.03;;;;;;;26.24;55.17;99409.25;6040137;23;97332;-76
2022/08/19 01:17:16;;;;;;;10.30;6.78;;;;;;;26.33;55.49;99405.50;6090518;23;97341;-73
2022/08/19 01:19:43;;;;;;;10.60;7.43;;;;;;;26.19;55.68;99384.72;6062294;23;97248;-74
2022/08/19 01:22:11;;;;;;;14.43;7.38;;;;;;;26.29;55.51;99401.47;6064345;23;97299;-76
2022/08/19 01:24:37;;;;;;;11.25;6.72;;;;;;;26.24;55.80;99389.56;6062699;23;97253;-76
2022/08/19 01:27:07;;;;;;;10.27;7.43;;;;;;;26.24;55.48;99382.34;6039211;23;100962;-75
2022/08/19 01:29:33;;;;;;;7.68;6.75;;;;;;;26.22;55.40;99370.94;6038454;23;100987;-76
2022/08/19 01:31:59;;;;;;;9.80;6.95;;;;;;;26.16;55.01;99375.16;6039109;23;96683;-76
2022/08/19 01:34:25;;;;;;;10.95;6.50;;;;;;;26.09;54.98;99362.56;6040087;23;97037;-76
2022/08/19 01:36:50;;;;;;;9.00;6.47;;;;;;;26.13;55.22;99385.44;6038711;23;100647;-76
2022/08/19 01:39:20;;;;;;;7.93;5.88;;;;;;;26.20;54.88;99384.53;6089401;23;97238;-75
2022/08/19 01:41:46;;;;;;;10.05;6.90;;;;;;;26.14;55.01;99387.09;6038742;23;97025;-76
2022/08/19 01:44:12;;;;;;;8.52;6.97;;;;;;;26.02;55.21;99377.75;6039262;23;96879;-76
2022/08/19 01:46:38;;;;;;;8.38;6.53;;;;;;;26.09;54.99;99381.41;6038507;23;97578;-73
2022/08/19 01:49:05;;;;;;;7.50;6.70;;;;;;;26.07;55.14;99388.81;6038528;23;100941;-74
2022/08/19 01:51:31;;;;;;;8.77;7.20;;;;;;;25.85;55.43;99344.72;6039703;23;97217;-73
2022/08/19 01:53:57;;;;;;;8.18;6.32;;;;;;;26.11;55.14;99384.75;6062513;23;97000;-74
2022/08/19 01:56:23;;;;;;;8.55;6.82;;;;;;;26.05;55.27;99372.84;6038574;23;101181;-75
2022/08/19 01:59:11;;;;;;;10.07;7.20;;;;;;;25.97;55.29;99370.19;6062578;23;98031;-75
2022/08/19 02:01:36;;;;;;;8.90;6.90;;;;;;;25.78;55.91;99375.97;6039222;23;97100;-76
2022/08/19 02:04:02;;;;;;;9.38;6.28;;;;;;;25.82;55.59;99375.47;6015088;23;97023;-75
2022/08/19 02:06:28;;;;;;;12.38;7.07;;;;;;;25.71;56.32;99378.47;6063791;23;101625;-75
2022/08/19 02:08:54;;;;;;;10.05;6.63;;;;;;;25.48;56.16;99359.56;6061214;23;97133;-75
2022/08/19 02:11:25;;;;;;;11.00;7.25;;;;;;;25.70;56.03;99384.88;6038941;23;96682;-75
2022/08/19 02:13:50;;;;;;;7.70;6.88;;;;;;;25.58;56.22;99375.50;6038441;23;97184;-75
2022/08/19 02:16:17;;;;;;;7.90;6.65;;;;;;;25.59;56.21;99372.63;6038843;23;100618;-73
2022/08/19 02:18:43;;;;;;;7.53;6.57;;;;;;;25.51;56.27;99354.72;6037192;23;101264;-73
2022/08/19 02:21:09;;;;;;;11.20;6.97;;;;;;;25.57;56.34;99355.88;6090172;23;96578;-74
2022/08/19 02:23:34;;;;;;;10.05;6.80;;;;;;;25.59;56.29;99347.63;6040097;23;97162;-75
2022/08/19 02:26:00;;;;;;;8.07;7.15;;;;;;;25.61;56.35;99357.19;6035563;23;101423;-75
2022/08/19 02:28:26;;;;;;;7.90;7.10;;;;;;;25.51;56.56;99360.06;6037371;23;101050;-75
2022/08/19 02:30:51;;;;;;;11.23;7.13;;;;;;;25.49;56.61;99358.56;6062344;23;97021;-75
2022/08/19 02:33:17;;;;;;;12.70;7.07;;;;;;;25.47;56.57;99349.84;6015860;23;96839;-76
2022/08/19 02:35:44;;;;;;;9.75;7.07;;;;;;;25.36;56.65;99324.16;6038242;23;97657;-75
2022/08/19 02:38:27;;;;;;;9.32;6.57;;;;;;;25.42;56.55;99338.75;6038948;23;97318;-75
2022/08/19 02:40:57;;;;;;;14.10;7.53;;;;;;;25.32;56.87;99343.50;6017992;23;97008;-75
2022/08/19 02:43:23;;;;;;;12.43;7.93;;;;;;;25.36;56.80;99356.41;6011841;23;96963;-75
2022/08/19 02:45:49;;;;;;;11.10;7.57;;;;;;;25.25;56.90;99340.66;6037656;23;99491;-76
2022/08/19 02:48:17;;;;;;;8.40;6.82;;;;;;;25.41;56.92;99350.53;6014441;23;101634;-75
2022/08/19 02:50:43;;;;;;;8.52;7.50;;;;;;;25.26;56.66;99343.16;6063155;23;96632;-75
2022/08/19 02:53:09;;;;;;;7.60;6.75;;;;;;;25.23;57.09;99348.03;6039406;23;97053;-75
2022/08/19 02:55:34;;;;;;;10.82;7.25;;;;;;;25.25;56.83;99340.66;6037963;23;100983;-76
2022/08/19 02:58:00;;;;;;;14.13;7.47;;;;;;;25.36;56.59;99345.66;6038720;23;100752;-75
2022/08/19 03:00:26;;;;;;;14.35;7.15;;;;;;;25.16;57.18;99353.25;6036265;23;97233;-75
2022/08/19 03:02:52;;;;;;;7.88;6.78;;;;;;;25.33;56.89;99351.38;6062348;23;97359;-75
2022/08/19 03:05:18;;;;;;;11.45;7.30;;;;;;;25.36;56.99;99350.19;6064434;23;97514;-75
2022/08/19 03:07:43;;;;;;;11.45;7.72;;;;;;;25.07;57.46;99349.72;6040012;23;97255;-75
2022/08/19 03:10:09;;;;;;;14.02;8.05;;;;;;;25.11;57.58;99369.00;6016031;23;96949;-76
2022/08/19 03:12:37;;;;;;;11.98;7.35;;;;;;;25.26;57.13;99378.06;6041137;23;97180;-73
2022/08/19 03:15:04;;;;;;;9.93;7.53;;;;;;;25.24;57.08;99388.13;6039954;23;97776;-76
2022/08/19 03:17:29;;;;;;;7.95;7.15;;;;;;;25.20;57.38;99392.19;6014549;23;99391;-73
2022/08/19 03:19:55;;;;;;;9.00;7.82;;;;;;;25.01;57.90;99389.78;6060877;23;97154;-73
2022/08/19 03:22:21;;;;;;;10.90;8.02;;;;;;;25.13;57.48;99396.50;6040802;23;97317;-75
2022/08/19 03:24:46;;;;;;;10.15;7.90;;;;;;;25.01;57.63;99381.75;6038387;23;101278;-73
2022/08/19 03:27:12;;;;;;;11.05;7.20;;;;;;;25.13;57.43;99399.19;6039615;23;100988;-73
2022/08/19 03:29:38;;;;;;;12.95;7.57;;;;;;;25.11;57.60;99386.97;6039696;23;97265;-73
2022/08/19 03:32:05;;;;;;;9.85;8.40;;;;;;;25.00;57.74;99391.63;6064029;23;97045;-73
2022/08/19 03:34:31;;;;;;;11.07;8.25;;;;;;;24.90;57.73;99384.75;6063724;23;97886;-73
2022/08/19 03:37:00;;;;;;;11.48;8.50;;;;;;;24.92;57.76;99380.91;6039405;23;100726;-73
2022/08/19 03:39:26;;;;;;;9.15;7.72;;;;;;;24.76;58.26;99394.31;6039517;23;97322;-75
2022/08/19 03:41:53;;;;;;;10.27;7.65;;;;;;;24.69;58.63;99395.97;6039446;23;96925;-76
2022/08/19 03:44:21;;;;;;;11.82;7.78;;;;;;;24.85;58.46;99390.63;6063361;23;98001;-73
2022/08/19 03:46:50;;;;;;;15.10;7.95;;;;;;;24.76;58.61;99378.22;6039638;23;97314;-73
2022/08/19 03:49:16;;;;;;;9.77;8.25;;;;;;;24.83;58.22;99374.69;6063902;23;97369;-75
2022/08/19 03:51:42;;;;;;;10.23;8.00;;;;;;;24.82;58.13;99388.28;6064212;23;97271;-73
2022/08/19 03:54:10;;;;;;;13.57;8.20;;;;;;;24.74;58.42;99385.59;6039196;23;101423;-73
2022/08/19 03:56:38;;;;;;;9.13;7.57;;;;;;;24.64;58.33;99377.69;6039683;23;101085;-73
2022/08/19 03:59:05;;;;;;;10.30;8.88;;;;;;;24.85;58.36;99396.84;6062768;23;96996;-76
2022/08/19 04:01:30;;;;;;;12.10;8.68;;;;;;;24.69;58.76;99399.47;6040356;23;97172;-76
2022/08/19 04:03:57;;;;;;;13.05;8.57;;;;;;;24.77;58.64;99412.91;6063006;23;97405;-76
2022/08/19 04:06:25;;;;;;;16.60;8.82;;;;;;;24.66;58.64;99407.03;6015898;23;100859;-76
2022/08/19 04:08:53;;;;;;;11.90;9.27;;;;;;;24.71;58.64;99405.53;6037733;23;97396;-74
2022/08/19 04:11:22;;;;;;;13.02;9.63;;;;;;;24.57;58.55;99382.88;6039685;23;96698;-74
2022/08/19 04:13:49;;;;;;;12.43;9.27;;;;;;;24.57;59.21;99404.31;6063136;23;97522;-76
2022/08/19 04:16:14;;;;;;;11.15;8.68;;;;;;;24.42;59.46;99400.56;6039572;23;101320;-76
2022/08/19 04:18:40;;;;;;;10.75;9.05;;;;;;;24.49;59.65;99415.03;6063479;23;97127;-74
2022/08/19 04:21:07;;;;;;;17.70;9.05;;;;;;;24.55;59.46;99419.78;6039453;23;97163;-74
2022/08/19 04:23:33;;;;;;;11.88;9.57;;;;;;;24.49;59.26;99390.88;6039304;23;100930;-76
2022/08/19 04:25:59;;;;;;;13.45;8.90;;;;;;;24.54;59.31;99410.03;6063659;23;97414;-74
2022/08/19 04:28:24;;;;;;;12.45;9.05;;;;;;;24.73;59.17;99418.81;6038904;23;97134;-74
2022/08/19 04:30:53;;;;;;;17.98;10.00;;;;;;;24.85;58.66;99423.69;6039386;23;96887;-74
2022/08/19 04:33:22;;;;;;;12.60;10.13;;;;;;;24.81;58.92;99421.47;6038426;23;101191;-76
2022/08/19 04:35:49;;;;;;;15.48;9.75;;;;;;;24.81;59.05;99424.16;6037204;23;97987;-74
2022/08/19 04:38:17;;;;;;;10.98;8.95;;;;;;;24.80;58.78;99409.91;6015075;23;97095;-74
2022/08/19 04:43:31;;;;;;;11.73;9.45;;;;;;;24.84;58.96;99411.28;6067699;23;97405;-74
2022/08/19 04:45:56;;;;;;;12.57;9.80;;;;;;;24.79;59.54;99405.56;6063519;23;97268;-74
2022/08/19 04:48:25;;;;;;;14.55;8.77;;;;;;;24.93;58.90;99406.75;6034940;23;97337;-73
2022/08/19 04:50:57;;;;;;;14.55;9.52;;;;;;;25.00;58.79;99401.53;6013953;23;96795;-73
2022/08/19 04:53:28;;;;;;;17.30;10.25;;;;;;;25.12;58.51;99404.72;6037220;23;101022;-74
2022/08/19 04:55:56;;;;;;;14.18;9.38;;;;;;;25.04;58.92;99408.25;6061371;23;97446;-74
2022/08/19 04:58:22;;;;;;;10.98;9.65;;;;;;;25.09;59.00;99419.31;6036207;23;97102;-73
2022/08/19 05:00:47;;;;;;;13.02;10.52;;;;;;;25.03;59.25;99401.22;6035878;23;97356;-74
2022/08/19 05:03:16;;;;;;;14.95;10.20;;;;;;;25.08;59.27;99402.38;6037067;23;100909;-74
2022/08/19 05:05:45;;;;;;;16.27;10.20;;;;;;;25.09;59.47;99395.16;6013249;23;101296;-74
2022/08/19 05:08:12;;;;;;;12.88;9.40;;;;;;;25.12;59.50;99402.88;6036279;23;97338;-74
2022/08/19 05:10:39;;;;;;;19.40;10.32;;;;;;;25.19;59.20;99401.25;6061690;23;97300;-73
2022/08/19 05:13:05;;;;;;;11.95;9.45;;;;;;;25.24;58.91;99401.56;6060698;23;97878;-73
2022/08/19 05:15:31;;;;;;;15.63;10.57;;;;;;;25.32;59.12;99405.25;6012988;23;101146;-75
2022/08/19 05:23:24;;;;;;;15.70;10.15;;;;;;;25.32;59.17;99410.63;6086730;23;97983;-73
2022/08/19 05:25:51;;;;;;;13.27;9.70;;;;;;;25.35;59.25;99402.25;6061075;23;100976;-73
2022/08/19 05:28:18;;;;;;;15.10;9.20;;;;;;;25.48;59.07;99398.03;6035399;23;97190;-73
2022/08/19 05:30:44;;;;;;;12.90;9.55;;;;;;;25.53;58.99;99397.50;6086745;23;97250;-75
2022/08/19 05:33:11;;;;;;;11.35;10.07;;;;;;;25.52;58.98;99411.97;6037310;23;98487;-76
2022/08/19 05:35:38;;;;;;;16.15;10.85;;;;;;;25.57;58.68;99420.34;6036816;23;101354;-76
2022/08/19 05:38:04;;;;;;;12.43;10.50;;;;;;;25.63;58.46;99425.03;6035491;23;96962;-75
2022/08/19 05:40:29;;;;;;;17.35;11.23;;;;;;;25.64;58.35;99423.19;6013669;23;96972;-76
2022/08/19 05:42:55;;;;;;;14.57;11.27;;;;;;;25.62;58.48;99417.13;6035540;23;99927;-76
2022/08/19 05:45:21;;;;;;;12.60;10.63;;;;;;;25.80;57.74;99412.38;6036955;23;101841;-76
2022/08/19 05:47:47;;;;;;;19.35;11.15;;;;;;;25.74;58.31;99405.88;6085526;23;97129;-75
2022/08/19 05:50:13;;;;;;;12.35;9.50;;;;;;;25.92;58.01;99411.06;6036045;23;97223;-76
2022/08/19 05:52:38;;;;;;;13.52;10.25;;;;;;;26.11;57.55;99412.47;6057341;23;101644;-75
2022/08/19 05:55:05;;;;;;;13.77;9.75;;;;;;;26.24;57.46;99406.56;6058284;23;97432;-76
2022/08/19 05:57:30;;;;;;;12.73;10.15;;;;;;;26.45;56.87;99410.50;6037115;23;97202;-75
2022/08/19 05:59:57;;;;;;;11.50;10.40;;;;;;;26.52;56.34;99420.38;6060680;23;96791;-75
2022/08/19 06:02:22;;;;;;;13.73;10.13;;;;;;;26.59;56.70;99424.06;6059597;23;98063;-75
2022/08/19 06:04:49;;;;;;;16.20;10.95;;;;;;;26.78;56.09;99425.44;6060184;23;100869;-75
2022/08/19 06:07:15;;;;;;;16.77;10.65;;;;;;;26.76;56.29;99422.13;6036472;23;96974;-75
2022/08/19 06:09:41;;;;;;;14.30;9.82;;;;;;;27.12;55.57;99432.28;6036668;23;97206;-74
2022/08/19 06:12:40;;;;;;;15.38;10.35;;;;;;;27.63;54.24;99447.84;6057393;23;97502;-74
2022/08/19 06:15:27;;;;;;;14.70;10.40;;;;;;;27.68;54.11;99457.06;6042704;23;97601;-74
2022/08/19 06:17:53;;;;;;;15.82;9.95;;;;;;;28.04;53.14;99469.03;6034279;23;97100;-74
2022/08/19 06:20:19;;;;;;;15.73;9.52;;;;;;;28.29;52.83;99472.28;6059314;23;97067;-74
2022/08/19 06:22:46;;;;;;;16.33;9.77;;;;;;;28.75;51.88;99475.59;6034463;23;97303;-76
2022/08/19 06:25:13;;;;;;;14.23;9.82;;;;;;;28.92;51.05;99459.16;6057978;23;97764;-82
2022/08/19 06:27:39;;;;;;;13.85;10.15;;;;;;;29.53;49.35;99476.59;6031877;23;96967;-72
2022/08/19 06:30:05;;;;;;;17.08;9.93;;;;;;;30.02;48.66;99474.91;6034369;23;97374;-74
2022/08/19 06:32:31;;;;;;;14.85;9.38;;;;;;;30.12;48.59;99472.69;6057938;23;98508;-73
2022/08/19 06:34:57;;;;;;;12.45;9.52;;;;;;;30.48;47.67;99477.03;6033647;23;97187;-74
2022/08/19 06:37:23;;;;;;;13.18;9.10;;;;;;;30.63;46.76;99485.00;6057546;23;97156;-74
2022/08/19 06:39:49;;;;;;;16.77;8.13;;;;;;;30.94;46.93;99502.66;6059446;23;97205;-74
2022/08/19 06:42:18;;;;;;;11.68;7.80;;;;;;;31.18;46.63;99506.66;6059893;23;97398;-74
2022/08/19 06:44:46;;;;;;;11.77;8.15;;;;;;;31.52;45.84;99520.09;6060780;23;97887;-75
2022/08/19 06:47:15;;;;;;;12.98;8.50;;;;;;;31.80;45.05;99511.75;6035758;23;96941;-78
2022/08/19 06:49:41;;;;;;;15.23;7.65;;;;;;;32.14;44.00;99519.88;6033402;23;97556;-78
2022/08/19 06:52:07;;;;;;;13.32;8.00;;;;;;;32.82;42.65;99522.22;6034513;23;100038;-78
2022/08/19 06:54:33;;;;;;;11.40;7.97;;;;;;;32.44;43.04;99503.94;6036398;23;101940;-79
2022/08/19 06:57:01;;;;;;;15.77;8.18;;;;;;;32.68;41.83;99514.09;6059702;23;96734;-78
2022/08/19 06:59:27;;;;;;;12.65;8.35;;;;;;;34.06;40.91;99520.75;6060093;23;96801;-78
2022/08/19 07:01:55;;;;;;;12.15;7.72;;;;;;;34.68;39.78;99520.72;6058932;23;98466;-78
2022/08/19 07:04:24;;;;;;;12.25;7.95;;;;;;;34.00;39.51;99506.09;6036803;23;98630;-79
2022/08/19 07:06:51;;;;;;;9.02;7.57;;;;;;;33.68;40.11;99524.41;6034736;23;96662;-78
2022/08/19 07:09:17;;;;;;;14.90;7.88;;;;;;;33.38;40.77;99528.81;6035918;23;96886;-79
2022/08/19 07:11:47;;;;;;;11.30;6.78;;;;;;;35.83;37.35;99516.94;6038035;23;101190;-80
2022/08/19 07:14:14;;;;;;;9.73;7.13;;;;;;;37.03;35.02;99510.03;6038279;23;98045;-79
2022/08/19 07:16:39;;;;;;;9.35;6.60;;;;;;;37.97;34.18;99514.94;6063009;23;96706;-81
2022/08/19 07:19:05;;;;;;;18.33;7.13;;;;;;;39.03;32.74;99518.50;6038096;23;97184;-80
2022/08/19 07:21:30;;;;;;;11.75;7.05;;;;;;;39.20;33.00;99521.97;6061785;23;97487;-79
2022/08/19 07:23:56;;;;;;;8.65;6.55;;;;;;;39.00;31.64;99517.09;6061468;23;101373;-80
2022/08/19 07:26:25;;;;;;;12.00;6.47;;;;;;;39.27;31.65;99528.09;6061463;23;97534;-79
2022/08/19 07:28:51;;;;;;;11.95;6.28;;;;;;;39.55;31.20;99539.88;6062469;23;97137;-80
2022/08/19 07:31:19;;;;;;;11.55;7.45;;;;;;;39.76;30.52;99514.25;6036403;23;101248;-81
2022/08/19 07:33:46;;;;;;;9.20;5.75;;;;;;;40.01;29.80;99523.78;6035179;23;101028;-79
2022/08/19 07:36:14;;;;;;;9.90;5.63;;;;;;;40.11;29.95;99523.81;6035866;23;96803;-78
2022/08/19 07:38:42;;;;;;;12.75;6.47;;;;;;;40.49;29.28;99528.19;6060327;23;96876;-82
2022/08/19 07:41:11;;;;;;;14.20;6.63;;;;;;;41.21;29.51;99530.38;6059848;23;97506;-80
2022/08/19 07:43:37;;;;;;;10.37;6.97;;;;;;;41.77;28.70;99520.19;6086269;23;97315;-80
2022/08/19 07:46:02;;;;;;;8.98;6.10;;;;;;;41.73;28.06;99530.13;6035691;23;97730;-79
2022/08/19 07:48:28;;;;;;;11.43;5.80;;;;;;;42.05;28.50;99520.75;6084893;23;97103;-80
2022/08/19 07:51:01;;;;;;;7.50;5.82;;;;;;;42.22;29.05;99526.78;6058754;23;97443;-80
2022/08/19 07:53:27;;;;;;;6.88;5.43;;;;;;;42.57;28.25;99527.78;6058510;23;98623;-79
2022/08/19 07:55:53;;;;;;;6.68;4.97;;;;;;;42.96;27.74;99518.75;6057942;23;97198;-76
2022/08/19 07:58:20;;;;;;;12.30;5.55;;;;;;;42.94;27.72;99510.78;6084861;23;97112;-79
2022/08/19 08:00:48;;;;;;;8.85;4.70;;;;;;;43.30;27.46;99520.78;6032899;23;97887;-78
2022/08/19 08:03:15;;;;;;;6.72;5.10;;;;;;;43.66;26.94;99518.53;6059592;23;97421;-78
2022/08/19 08:11:10;;;;;;;9.52;5.60;;;;;;;41.78;29.11;99546.66;6038532;23;100910;-80
2022/08/19 08:13:36;;;;;;;8.30;5.47;;;;;;;42.12;27.39;99517.69;6060452;23;97240;-80
2022/08/19 08:16:02;;;;;;;10.82;4.85;;;;;;;40.50;30.87;99548.25;6087554;23;97019;-80
2022/08/19 08:18:28;;;;;;;10.25;4.97;;;;;;;39.77;31.88;99543.41;6060007;23;96761;-81
2022/08/19 08:20:54;;;;;;;6.68;4.80;;;;;;;39.09;32.81;99540.22;6037239;23;98235;-78
2022/08/19 08:23:24;;;;;;;8.60;4.85;;;;;;;41.32;29.45;99526.53;6034694;23;100916;-82
2022/08/19 08:25:54;;;;;;;11.00;4.88;;;;;;;42.13;28.20;99528.44;6036516;23;97630;-80
2022/08/19 08:28:20;;;;;;;7.90;4.93;;;;;;;42.52;28.19;99527.78;6059477;23;97455;-82
2022/08/19 08:30:47;;;;;;;10.90;5.70;;;;;;;42.81;27.25;99525.19;6035464;23;97257;-80
2022/08/19 08:33:14;;;;;;;5.35;4.57;;;;;;;40.36;30.50;99523.19;6060414;23;97229;-81
2022/08/19 08:35:41;;;;;;;8.18;4.45;;;;;;;38.65;33.08;99522.97;6039120;23;96752;-80
2022/08/19 08:38:07;;;;;;;10.70;4.88;;;;;;;37.49;34.90;99534.66;6034135;23;96763;-81
2022/08/19 08:40:41;;;;;;;11.40;5.28;;;;;;;36.90;35.02;99532.16;6036484;23;101439;-83
2022/08/19 08:43:30;;;;;;;7.07;5.70;;;;;;;36.56;35.80;99523.81;6060503;23;101358;-80
2022/08/19 08:46:06;;;;;;;8.13;5.35;;;;;;;39.61;30.52;99544.31;6060267;23;97042;-81
2022/08/19 08:48:38;;;;;;;6.80;5.20;;;;;;;40.62;28.86;99546.16;6011278;23;96797;-80
2022/08/19 08:51:09;;;;;;;7.93;5.50;;;;;;;41.34;27.86;99543.63;6036708;23;100582;-81
2022/08/19 08:53:36;;;;;;;6.15;4.88;;;;;;;41.64;28.51;99534.56;6036608;23;100741;-80
2022/08/19 08:56:03;;;;;;;8.38;4.35;;;;;;;42.06;26.62;99531.47;6062122;23;97480;-80
2022/08/19 08:58:33;;;;;;;10.65;4.53;;;;;;;42.15;25.73;99531.72;6035837;23;97497;-80
2022/08/19 09:00:59;;;;;;;13.20;4.50;;;;;;;42.03;26.01;99526.53;6012338;23;101416;-81
2022/08/19 09:03:27;;;;;;;17.60;5.00;;;;;;;41.82;26.31;99516.63;6061000;23;97607;-84
2022/08/19 09:06:00;;;;;;;8.80;5.07;;;;;;;41.65;26.47;99494.06;6060870;23;97436;-82
2022/08/19 09:08:50;;;;;;;13.07;4.80;;;;;;;41.87;25.58;99494.59;6059838;23;97448;-82
2022/08/19 09:11:41;;;;;;;7.13;4.38;;;;;;;42.26;25.85;99502.22;6061285;23;98557;-81
2022/08/19 09:14:25;;;;;;;7.05;4.50;;;;;;;42.31;26.12;99498.63;6060672;23;97430;-82
2022/08/19 09:16:51;;;;;;;7.68;4.68;;;;;;;42.44;26.47;99500.78;6061134;23;97020;-82
2022/08/19 09:19:17;;;;;;;6.18;4.47;;;;;;;42.67;25.59;99510.34;6061375;23;97231;-82
2022/08/19 09:21:43;;;;;;;6.93;4.55;;;;;;;42.91;26.11;99521.53;6037633;23;97239;-82
2022/08/19 09:24:08;;;;;;;6.00;3.85;;;;;;;43.18;25.85;99515.63;6036983;23;100814;-82
2022/08/19 09:26:34;;;;;;;6.43;3.97;;;;;;;42.92;25.90;99509.41;6037444;23;97283;-82
2022/08/19 09:29:01;;;;;;;10.25;4.70;;;;;;;43.05;26.11;99513.47;6060911;23;97137;-83
2022/08/19 09:31:29;;;;;;;10.30;5.15;;;;;;;42.67;24.70;99511.16;6033521;23;101495;-83
2022/08/19 09:33:56;;;;;;;9.63;4.27;;;;;;;41.84;26.30;99509.75;6058960;23;97941;-83
2022/08/19 09:36:24;;;;;;;7.15;4.57;;;;;;;41.08;27.34;99515.22;6011114;23;97390;-82
2022/08/19 09:38:51;;;;;;;10.80;4.88;;;;;;;41.43;26.49;99508.94;6035694;23;97188;-81
2022/08/19 09:41:19;;;;;;;9.30;4.82;;;;;;;41.39;26.83;99507.81;6035200;23;100931;-82
2022/08/19 09:43:47;;;;;;;5.57;4.72;;;;;;;41.46;26.48;99518.56;6010835;23;100757;-84
2022/08/19 09:46:13;;;;;;;7.53;4.40;;;;;;;40.13;28.74;99518.06;6032045;23;96886;-83
2022/08/19 09:48:40;;;;;;;9.15;4.63;;;;;;;39.35;30.55;99502.94;6059134;23;97304;-81
2022/08/19 09:51:07;;;;;;;7.43;4.38;;;;;;;38.60;31.18;99511.94;6059382;23;98084;-82
2022/08/19 09:53:37;;;;;;;8.32;4.95;;;;;;;38.04;30.73;99507.34;6085643;23;97359;-85
2022/08/19 09:56:03;;;;;;;9.68;4.47;;;;;;;37.76;30.99;99507.44;6009965;23;97367;-84
2022/08/19 09:58:29;;;;;;;6.35;4.30;;;;;;;38.23;30.70;99518.03;6034576;23;97121;-84
2022/08/19 10:00:56;;;;;;;6.95;4.63;;;;;;;38.22;30.84;99519.94;6035329;23;97449;-85
2022/08/19 10:03:22;;;;;;;10.13;5.10;;;;;;;37.95;30.33;99532.69;6060533;23;97792;-84
2022/08/19 10:05:48;;;;;;;9.32;5.05;;;;;;;37.78;30.67;99517.06;6034991;23;97018;-83
2022/08/19 10:08:18;;;;;;;7.93;4.65;;;;;;;37.61;31.52;99510.78;6035638;23;97201;-84
2022/08/19 10:10:44;;;;;;;11.57;4.85;;;;;;;37.75;32.65;99524.97;6061316;23;97964;-82
2022/08/19 10:13:10;;;;;;;7.60;4.85;;;;;;;37.73;30.70;99530.69;6036909;23;99124;-83
2022/08/19 10:15:38;;;;;;;6.95;4.40;;;;;;;37.38;30.85;99534.47;6014685;23;97236;-81
2022/08/19 10:18:05;;;;;;;10.05;4.38;;;;;;;37.16;31.83;99533.50;6015047;23;97226;-90
2022/08/19 10:20:31;;;;;;;7.38;4.15;;;;;;;36.99;31.84;99532.59;6014690;23;101365;-86
2022/08/19 10:22:56;;;;;;;5.82;4.05;;;;;;;36.91;32.03;99531.91;6038355;23;101091;-85
2022/08/19 10:25:21;;;;;;;8.52;4.28;;;;;;;36.83;31.72;99536.94;6015594;23;97374;-85
2022/08/19 10:27:47;;;;;;;7.10;4.13;;;;;;;36.45;32.77;99520.03;6063623;23;110186;-81
2022/08/19 10:30:13;;;;;;;10.48;4.38;;;;;;;36.41;32.30;99527.03;6035812;23;97340;-83
2022/08/19 10:32:38;;;;;;;10.10;4.28;;;;;;;35.77;32.55;99524.19;6037249;23;98629;-83
2022/08/19 10:35:08;;;;;;;7.72;3.85;;;;;;;35.38;32.93;99523.75;6060828;23;96697;-83
2022/08/19 10:37:36;;;;;;;7.18;4.22;;;;;;;35.46;33.66;99521.72;6087909;23;97073;-83
2022/08/19 10:40:04;;;;;;;6.55;4.13;;;;;;;35.53;33.08;99508.84;6036984;23;98556;-83
2022/08/19 10:42:31;;;;;;;8.60;4.20;;;;;;;35.41;33.98;99502.53;6035548;23;97730;-83
2022/08/19 10:44:57;;;;;;;8.70;4.05;;;;;;;35.37;33.40;99515.78;6035910;23;96977;-83
2022/08/19 10:47:22;;;;;;;5.50;3.95;;;;;;;35.07;34.43;99504.91;6035568;23;96768;-83
2022/08/19 10:52:33;;;;;;;14.43;4.60;;;;;;;34.96;34.42;99517.41;6040102;23;100669;-83
2022/08/19 10:57:49;;;;;;;6.82;4.20;;;;;;;34.85;36.10;99532.66;6065545;23;97250;-83
2022/08/19 11:00:15;;;;;;;8.80;4.60;;;;;;;34.37;35.04;99524.41;6036356;23;100838;-83
2022/08/19 11:02:41;;;;;;;6.70;3.97;;;;;;;34.25;36.09;99508.81;6013874;23;101316;-83
2022/08/19 11:05:10;;;;;;;7.47;4.07;;;;;;;34.37;36.14;99511.63;6036663;23;97247;-83
2022/08/19 11:07:38;;;;;;;11.35;4.53;;;;;;;34.35;35.99;99496.56;6036975;23;97175;-83
2022/08/19 11:10:04;;;;;;;9.02;4.38;;;;;;;34.22;35.89;99512.00;6035892;23;97874;-84
2022/08/19 11:12:29;;;;;;;7.68;3.95;;;;;;;34.10;35.60;99515.69;6061058;23;97790;-81
2022/08/19 11:14:55;;;;;;;5.47;4.10;;;;;;;33.89;35.73;99515.03;6036890;23;97023;-81
2022/08/19 11:17:23;;;;;;;6.60;4.45;;;;;;;33.89;36.18;99520.47;6062586;23;97018;-86
2022/08/19 11:19:49;;;;;;;9.35;4.38;;;;;;;33.98;36.08;99516.41;6065344;23;97749;-87
2022/08/19 11:22:15;;;;;;;12.48;4.22;;;;;;;33.89;35.96;99525.94;6035954;23;97799;-89
2022/08/19 11:24:40;;;;;;;6.85;4.35;;;;;;;34.00;35.45;99516.16;6017123;23;96715;-89
2022/08/19 11:27:08;;;;;;;7.03;3.90;;;;;;;33.96;34.56;99520.41;6041194;23;97051;-88
2022/08/19 11:29:36;;;;;;;9.52;3.67;;;;;;;33.97;34.05;99506.56;6037390;23;98444;-88
2022/08/19 11:32:08;;;;;;;7.05;2.97;;;;;;;33.72;34.40;99505.78;6039221;23;97097;-90
2022/08/19 11:34:35;;;;;;;10.32;3.25;;;;;;;33.78;34.24;99521.19;6038411;23;97185;-88
2022/08/19 11:37:01;;;;;;;5.57;2.70;;;;;;;33.91;34.72;99520.25;6014781;23;97391;-87
2022/08/19 11:39:29;;;;;;;12.30;3.35;;;;;;;33.67;36.22;99498.25;6039337;23;97900;-87
2022/08/19 11:41:57;;;;;;;3.28;2.33;;;;;;;33.59;34.56;99523.84;6039077;23;100127;-88
2022/08/19 11:44:22;;;;;;;5.28;2.58;;;;;;;33.62;33.82;99529.91;6042167;23;96691;-84
2022/08/19 11:46:47;;;;;;;7.28;3.63;;;;;;;33.62;36.07;99527.19;6064457;23;97347;-83